EIN924D EIDW-DTMB
Flight info
| Callsign | EIN924D |
|---|---|
| Flight time | N/A |
| Altitude | 33000 |
| Route | PESIT DCT EKRAS DCT MOLEN DCT MTG DCT DOPEL UG869 TBK UV334 LABIP V334 MAGIM UV334 PERAM V334 RIVIN BAROG1R |
| Aircraft | A321/M-SDE3FGHIRWY/LB1 |
Departure
| Time | 2026-05-07 11:57 |
|---|---|
| Airport | Dublin Airport (EIDW) |
Arrival
| Time | N/A |
|---|---|
| Airport | Monastir Habib Bourguiba International Airport (DTMB) |
| Time | Latitude | Longitude | Altitude | Speed | Heading |
|---|---|---|---|---|---|
| 2026-05-07 11:25 | 53.42746 | -6.24816 | 211 ft | 0 kts | 357° |
| 2026-05-07 11:41 | 53.42745 | -6.24816 | 211 ft | 0 kts | 357° |
| 2026-05-07 11:45 | 53.42725 | -6.24812 | 211 ft | 4 kts | 338° |
| 2026-05-07 11:45 | 53.42707 | -6.24791 | 217 ft | 4 kts | 283° |
| 2026-05-07 11:46 | 53.42707 | -6.24770 | 215 ft | 0 kts | 231° |
| 2026-05-07 11:48 | 53.42708 | -6.24770 | 215 ft | 0 kts | 231° |
| 2026-05-07 11:51 | 53.42705 | -6.24774 | 216 ft | 3 kts | 231° |
| 2026-05-07 11:51 | 53.42669 | -6.24851 | 213 ft | 14 kts | 231° |
| 2026-05-07 11:51 | 53.42671 | -6.24925 | 214 ft | 9 kts | 321° |
| 2026-05-07 11:51 | 53.42751 | -6.25015 | 212 ft | 17 kts | 328° |
| 2026-05-07 11:52 | 53.42731 | -6.25171 | 211 ft | 16 kts | 223° |
| 2026-05-07 11:52 | 53.42656 | -6.25297 | 211 ft | 14 kts | 225° |
| 2026-05-07 11:52 | 53.42587 | -6.25416 | 213 ft | 14 kts | 225° |
| 2026-05-07 11:52 | 53.42504 | -6.25557 | 214 ft | 20 kts | 226° |
| 2026-05-07 11:53 | 53.42390 | -6.25751 | 211 ft | 26 kts | 225° |
| 2026-05-07 11:53 | 53.42270 | -6.25975 | 213 ft | 25 kts | 245° |
| 2026-05-07 11:53 | 53.42264 | -6.26250 | 211 ft | 23 kts | 276° |
| 2026-05-07 11:53 | 53.42278 | -6.26507 | 215 ft | 21 kts | 275° |
| 2026-05-07 11:54 | 53.42291 | -6.26746 | 211 ft | 20 kts | 276° |
| 2026-05-07 11:54 | 53.42303 | -6.26975 | 211 ft | 22 kts | 275° |
| 2026-05-07 11:54 | 53.42320 | -6.27274 | 211 ft | 30 kts | 275° |
| 2026-05-07 11:54 | 53.42340 | -6.27656 | 211 ft | 34 kts | 274° |
| 2026-05-07 11:55 | 53.42360 | -6.28003 | 211 ft | 22 kts | 276° |
| 2026-05-07 11:55 | 53.42314 | -6.28122 | 219 ft | 13 kts | 171° |
| 2026-05-07 11:55 | 53.42259 | -6.28019 | 211 ft | 12 kts | 120° |
| 2026-05-07 11:55 | 53.42213 | -6.27917 | 215 ft | 10 kts | 149° |
| 2026-05-07 11:56 | 53.42177 | -6.27833 | 217 ft | 10 kts | 100° |
| 2026-05-07 11:56 | 53.42161 | -6.27537 | 212 ft | 58 kts | 95° |
| 2026-05-07 11:56 | 53.42103 | -6.26457 | 212 ft | 125 kts | 95° |
| 2026-05-07 11:56 | 53.42003 | -6.24791 | 564 ft | 146 kts | 98° |
| 2026-05-07 11:57 | 53.41773 | -6.23160 | 1268 ft | 145 kts | 130° |
| 2026-05-07 11:57 | 53.40964 | -6.22258 | 1958 ft | 141 kts | 168° |
| 2026-05-07 11:57 | 53.40002 | -6.21853 | 2326 ft | 149 kts | 169° |
| 2026-05-07 11:57 | 53.38917 | -6.21391 | 2470 ft | 172 kts | 168° |
| 2026-05-07 11:58 | 53.37691 | -6.20859 | 2618 ft | 192 kts | 167° |
| 2026-05-07 11:58 | 53.36325 | -6.20264 | 2754 ft | 213 kts | 168° |
| 2026-05-07 11:58 | 53.34804 | -6.19602 | 2901 ft | 238 kts | 167° |
| 2026-05-07 11:58 | 53.33225 | -6.18633 | 3423 ft | 250 kts | 156° |
| 2026-05-07 11:59 | 53.31657 | -6.17300 | 4108 ft | 255 kts | 154° |
| 2026-05-07 11:59 | 53.30087 | -6.15884 | 4839 ft | 258 kts | 153° |
| 2026-05-07 11:59 | 53.28504 | -6.14436 | 5556 ft | 261 kts | 154° |
| 2026-05-07 11:59 | 53.26898 | -6.12974 | 6268 ft | 264 kts | 154° |
| 2026-05-07 12:00 | 53.25275 | -6.11506 | 6928 ft | 267 kts | 154° |
| 2026-05-07 12:00 | 53.23627 | -6.10022 | 7599 ft | 270 kts | 154° |
| 2026-05-07 12:00 | 53.21968 | -6.08538 | 8256 ft | 272 kts | 154° |
| 2026-05-07 12:00 | 53.20248 | -6.07220 | 8904 ft | 273 kts | 165° |
| 2026-05-07 12:01 | 53.18386 | -6.06676 | 9542 ft | 272 kts | 180° |
| 2026-05-07 12:01 | 53.16500 | -6.06892 | 10141 ft | 274 kts | 187° |
| 2026-05-07 12:01 | 53.14533 | -6.07238 | 10306 ft | 294 kts | 187° |
| 2026-05-07 12:01 | 53.12430 | -6.07512 | 10433 ft | 313 kts | 181° |
| 2026-05-07 12:02 | 53.10198 | -6.07212 | 10569 ft | 332 kts | 171° |
| 2026-05-07 12:02 | 53.07898 | -6.06255 | 10696 ft | 349 kts | 166° |
| 2026-05-07 12:02 | 53.05526 | -6.05169 | 11063 ft | 356 kts | 166° |
| 2026-05-07 12:02 | 53.03151 | -6.04095 | 11558 ft | 360 kts | 166° |
| 2026-05-07 12:03 | 53.00696 | -6.02993 | 12078 ft | 363 kts | 166° |
| 2026-05-07 12:03 | 52.98247 | -6.01897 | 12579 ft | 366 kts | 166° |
| 2026-05-07 12:03 | 52.95812 | -6.00806 | 13086 ft | 369 kts | 166° |
| 2026-05-07 12:03 | 52.93328 | -5.99693 | 13575 ft | 372 kts | 166° |
| 2026-05-07 12:04 | 52.90817 | -5.98568 | 14020 ft | 375 kts | 166° |
| 2026-05-07 12:04 | 52.88292 | -5.97437 | 14441 ft | 377 kts | 166° |
| 2026-05-07 12:04 | 52.85749 | -5.96298 | 14855 ft | 380 kts | 166° |
| 2026-05-07 12:04 | 52.83186 | -5.95152 | 15252 ft | 383 kts | 166° |
| 2026-05-07 12:05 | 52.80610 | -5.94005 | 15647 ft | 385 kts | 166° |
| 2026-05-07 12:05 | 52.78014 | -5.92854 | 16022 ft | 388 kts | 167° |
| 2026-05-07 12:05 | 52.75402 | -5.91697 | 16386 ft | 390 kts | 166° |
| 2026-05-07 12:05 | 52.72774 | -5.90534 | 16748 ft | 392 kts | 166° |
| 2026-05-07 12:06 | 52.70131 | -5.89364 | 17104 ft | 395 kts | 166° |
| 2026-05-07 12:06 | 52.67473 | -5.88189 | 17455 ft | 397 kts | 167° |
| 2026-05-07 12:06 | 52.64795 | -5.87012 | 17819 ft | 399 kts | 167° |
| 2026-05-07 12:06 | 52.62106 | -5.85830 | 18178 ft | 401 kts | 167° |
| 2026-05-07 12:07 | 52.59401 | -5.84640 | 18502 ft | 403 kts | 167° |
| 2026-05-07 12:07 | 52.56686 | -5.83442 | 18826 ft | 405 kts | 167° |
| 2026-05-07 12:07 | 52.53957 | -5.82235 | 19155 ft | 407 kts | 167° |
| 2026-05-07 12:07 | 52.51219 | -5.81026 | 19498 ft | 409 kts | 167° |
| 2026-05-07 12:08 | 52.48501 | -5.79830 | 19825 ft | 410 kts | 167° |
| 2026-05-07 12:08 | 52.45707 | -5.78575 | 20170 ft | 412 kts | 166° |
| 2026-05-07 12:08 | 52.42981 | -5.77272 | 20502 ft | 415 kts | 164° |